Latest Weather Observations for Mount Boyce

IDN60901

Issued at 4:01 pm EDT Saturday 29 February 2020 (issued every 10 minutes, with the page automatically refreshed every 10 minutes)

About weather observations | Map of Sydney area stations | Latest observations for Sydney area | Other Formats
Station Details ID: 063292 Name: MOUNT BOYCE AWS Lat: -33.62 Lon: 150.27 Height: 1080.0 m
Data from the previous 72 hours. | See also: Recent months at Mount Boyce
Date/Time
EDT
Temp
°C
App
Temp
°C
Dew
Point
°C
Rel
Hum
%
Delta-T
°C
Wind Press
QNH
hPa
Press
MSL
hPa
Rain since
9am
mm
Dir  Spd
km/h
Gust
km/h
Spd
kts
Gust
kts
29/04:00pm 23.2 22.2 12.2 50 6.6 E 9 19 5 10 - - 0.0
29/03:30pm 23.3 22.3 12.3 50 6.6 E 9 17 5 9 - - 0.0
29/03:00pm 22.9 21.7 11.6 49 6.7 E 9 15 5 8 - - 0.0
29/02:30pm 22.9 22.1 11.6 49 6.7 ENE 7 17 4 9 - - 0.0
29/02:00pm 22.4 20.9 11.8 51 6.3 ENE 11 19 6 10 - - 0.0
29/01:30pm 22.0 20.4 10.2 47 6.8 NE 9 13 5 7 - - 0.0
29/01:00pm 20.8 18.8 10.0 50 6.1 NE 11 19 6 10 - - 0.0
29/12:30pm 20.9 19.6 11.3 54 5.6 NNE 9 15 5 8 - - 0.0
29/12:00pm 20.6 19.5 10.7 53 5.7 NE 7 15 4 8 - - 0.0
29/11:30am 19.0 17.4 10.3 57 4.9 NE 9 17 5 9 - - 0.0
29/11:00am 18.7 17.1 10.3 58 4.7 ENE 9 17 5 9 - - 0.0
29/10:30am 17.9 16.2 11.2 65 3.8 NE 11 20 6 11 - - 0.0
29/10:00am 16.3 14.3 10.2 67 3.4 NE 11 19 6 10 - - 0.0
29/09:30am 15.6 13.5 11.0 74 2.6 NE 13 20 7 11 - - 0.0
29/09:00am 14.3 12.7 11.5 83 1.6 ENE 11 19 6 10 - - 0.2
29/08:30am 12.7 11.3 10.8 88 1.1 NE 9 17 5 9 - - 0.2
29/08:22am 12.8 11.5 11.4 91 0.8 ENE 9 17 5 9 - - 0.2
29/08:00am 12.2 11.5 11.4 95 0.4 ENE 6 13 3 7 - - 0.2
29/07:30am 11.6 10.6 11.0 96 0.3 ENE 7 13 4 7 - - 0.2
29/07:00am 11.6 10.6 11.1 97 0.3 ENE 7 13 4 7 - - 0.2
29/06:30am 11.6 10.3 11.3 98 0.2 ENE 9 19 5 10 - - 0.2
29/06:00am 11.2 9.8 10.9 98 0.2 ENE 9 19 5 10 - - 0.2
29/05:39am 11.0 9.5 10.5 97 0.3 ENE 9 17 5 9 - - 0.2
29/05:30am 10.8 9.2 10.2 96 0.3 ENE 9 13 5 7 - - 0.2
29/05:03am 10.4 9.2 9.5 94 0.5 ENE 6 11 3 6 - - 0.2
29/05:00am 10.4 9.0 9.5 94 0.5 ENE 7 11 4 6 - - 0.2
29/04:43am 10.7 9.0 9.8 94 0.5 ENE 9 13 5 7 - - 0.2
29/04:34am 10.6 9.2 9.4 92 0.6 ENE 7 11 4 6 - - 0.2
29/04:30am 10.7 9.4 9.3 91 0.7 ENE 6 11 3 6 - - 0.2
29/04:00am 11.4 10.3 10.1 92 0.7 ENE 6 9 3 5 - - 0.2
29/03:30am 11.8 11.0 10.9 94 0.5 ENE 6 11 3 6 - - 0.2
29/03:00am 11.9 10.9 11.0 94 0.5 ENE 7 13 4 7 - - 0.2
29/02:30am 11.9 10.9 11.0 94 0.5 ENE 7 11 4 6 - - 0.2
29/02:18am 11.9 10.9 11.0 94 0.5 ENE 7 13 4 7 - - 0.2
29/02:00am 12.0 11.2 11.2 95 0.4 ENE 6 9 3 5 - - 0.2
29/01:30am 12.1 11.2 11.5 96 0.3 ENE 7 13 4 7 - - 0.0
29/01:00am 12.1 11.2 11.5 96 0.3 ENE 7 15 4 8 - - 0.0
29/12:30am 12.1 10.9 11.5 96 0.3 ENE 9 15 5 8 - - 0.0
29/12:00am 12.1 10.8 11.3 95 0.4 ENE 9 17 5 9 - - 0.0
 
Date/Time
EDT
Temp
°C
App
Temp
°C
Dew
Point
°C
Rel
Hum
%
Delta-T
°C
Wind Press
QNH
hPa
Press
MSL
hPa
Rain since
9am
mm
Dir  Spd
km/h
Gust
km/h
Spd
kts
Gust
kts
28/11:30pm 12.4 11.2 11.5 94 0.5 E 9 17 5 9 - - 0.0
28/11:00pm 12.6 11.7 11.5 93 0.6 ENE 7 15 4 8 - - 0.0
28/10:39pm 12.8 11.9 11.2 90 0.9 ENE 7 15 4 8 - - 0.0
28/10:30pm 12.9 11.6 11.1 89 1.0 ENE 9 13 5 7 - - 0.0
28/10:00pm 13.2 11.5 11.1 87 1.2 ENE 11 20 6 11 - - 0.0
28/09:30pm 13.5 11.8 11.2 86 1.3 ENE 11 19 6 10 - - 0.0
28/09:00pm 13.7 11.6 11.2 85 1.4 ENE 13 20 7 11 - - 0.0
28/08:30pm 13.9 11.8 11.1 83 1.6 ENE 13 20 7 11 - - 0.0
28/08:00pm 14.3 12.2 11.3 82 1.7 ENE 13 28 7 15 - - 0.0
28/07:30pm 14.9 12.7 10.7 76 2.3 ENE 13 22 7 12 - - 0.0
28/07:03pm 16.2 14.3 10.5 69 3.2 ENE 11 22 6 12 - - 0.0
28/07:00pm 16.3 14.0 10.4 68 3.3 ENE 13 26 7 14 - - 0.0
28/06:30pm 17.9 15.6 10.5 62 4.2 ENE 13 26 7 14 - - 0.0
28/06:00pm 18.6 15.7 9.7 56 5.0 ENE 15 32 8 17 - - 0.0
28/05:30pm 20.4 17.6 8.4 46 6.6 E 13 22 7 12 - - 0.0
28/05:00pm 21.4 18.2 5.3 35 8.4 ENE 11 24 6 13 - - 0.0
28/04:30pm 21.7 18.6 5.6 35 8.5 ENE 11 24 6 13 - - 0.0
28/04:00pm 22.5 19.5 5.9 34 8.8 ENE 11 20 6 11 - - 0.0
28/03:30pm 21.7 18.7 6.0 36 8.3 E 11 24 6 13 - - 0.0
28/03:00pm 22.4 19.4 6.2 35 8.7 E 11 20 6 11 - - 0.0
28/02:30pm 22.8 19.7 5.7 33 9.1 ESE 11 20 6 11 - - 0.0
28/02:00pm 22.7 19.6 3.8 29 9.7 ESE 9 19 5 10 - - 0.0
28/01:30pm 22.5 19.5 2.1 26 10.1 SSE 7 15 4 8 - - 0.0
28/01:00pm 22.1 18.9 0.6 24 10.4 W 7 15 4 8 - - 0.0
28/12:42pm 21.5 16.8 -1.7 21 10.6 WSW 13 20 7 11 - - 0.0
28/12:30pm 21.1 16.2 -3.4 19 10.8 SW 13 19 7 10 - - 0.0
28/12:00pm 20.5 16.5 -1.9 22 10.2 SSW 9 19 5 10 - - 0.0
28/11:30am 19.6 16.8 2.0 31 8.6 SW 6 11 3 6 - - 0.0
28/11:00am 17.7 14.5 0.8 32 7.9 W 7 9 4 5 - - 0.0
28/10:30am 15.8 12.0 -0.4 33 7.3 WSW 9 13 5 7 - - 0.0
28/10:00am 14.7 11.0 2.6 44 5.7 WSW 11 15 6 8 - - 0.0
28/09:30am 13.4 9.0 0.4 41 5.8 WSW 13 15 7 8 - - 0.0
28/09:00am 12.0 7.2 0.1 44 5.2 W 15 19 8 10 - - 0.2
28/08:30am 11.1 5.8 -0.7 44 5.0 W 17 22 9 12 - - 0.2
28/08:00am 10.3 4.6 -0.8 46 4.7 W 19 22 10 12 - - 0.2
28/07:30am 9.8 4.0 -1.6 45 4.7 WSW 19 24 10 13 - - 0.2
28/07:00am 10.2 4.7 -2.1 42 5.1 WSW 17 22 9 12 - - 0.2
28/06:30am 10.8 4.9 -2.2 40 5.4 W 19 26 10 14 - - 0.2
28/06:00am 11.1 5.0 -2.7 38 5.6 W 20 26 11 14 - - 0.2
28/05:30am 11.2 5.3 -2.2 39 5.5 W 19 24 10 13 - - 0.2
28/05:00am 10.7 5.3 -1.7 42 5.2 W 17 20 9 11 - - 0.2
28/04:30am 11.0 5.5 -2.1 40 5.4 W 17 20 9 11 - - 0.2
28/04:00am 11.3 4.9 -1.5 41 5.4 W 22 30 12 16 - - 0.2
28/03:30am 11.7 5.3 -1.8 39 5.7 W 22 28 12 15 - - 0.2
28/03:00am 12.0 6.2 -1.5 39 5.7 WSW 19 28 10 15 - - 0.2
28/02:30am 12.0 6.6 -1.5 39 5.7 W 17 24 9 13 - - 0.2
28/02:00am 12.4 7.4 -1.1 39 5.8 W 15 20 8 11 - - 0.2
28/01:30am 12.3 7.3 -0.9 40 5.7 WSW 15 20 8 11 - - 0.2
28/01:00am 13.0 7.3 -1.0 38 6.1 W 19 24 10 13 - - 0.2
28/12:30am 13.2 7.4 -1.2 37 6.2 W 19 24 10 13 - - 0.2
28/12:00am 13.7 8.7 -1.5 35 6.5 WSW 15 20 8 11 - - 0.2
 
Date/Time
EDT
Temp
°C
App
Temp
°C
Dew
Point
°C
Rel
Hum
%
Delta-T
°C
Wind Press
QNH
hPa
Press
MSL
hPa
Rain since
9am
mm
Dir  Spd
km/h
Gust
km/h
Spd
kts
Gust
kts
27/11:30pm 14.2 9.2 -1.0 35 6.6 W 15 17 8 9 - - 0.2
27/11:00pm 14.5 9.5 -1.2 34 6.9 WSW 15 20 8 11 - - 0.2
27/10:30pm 15.0 10.4 -1.1 33 7.1 WSW 13 17 7 9 - - 0.2
27/10:00pm 15.3 10.7 -0.9 33 7.2 WSW 13 15 7 8 - - 0.2
27/09:30pm 16.0 11.4 -1.1 31 7.6 WSW 13 19 7 10 - - 0.2
27/09:00pm 16.5 12.3 1.4 36 7.1 WSW 13 17 7 9 - - 0.2
27/08:30pm 17.5 13.7 1.9 35 7.4 WSW 11 15 6 8 - - 0.2
27/08:00pm 18.3 14.1 1.8 33 7.9 W 13 20 7 11 - - 0.2
27/07:30pm 19.5 15.7 1.9 31 8.5 W 11 15 6 8 - - 0.2
27/07:00pm 21.0 16.1 2.3 29 9.2 W 17 26 9 14 - - 0.2
27/06:30pm 22.0 16.8 2.7 28 9.7 W 19 30 10 16 - - 0.2
27/06:00pm 22.6 17.5 4.2 30 9.5 WSW 20 35 11 19 - - 0.2
27/05:30pm 23.0 17.2 4.5 30 9.6 WSW 24 43 13 23 - - 0.2
27/05:00pm 23.2 18.8 7.3 36 8.7 W 20 33 11 18 - - 0.2
27/04:30pm 22.7 17.7 8.0 39 8.1 W 24 41 13 22 - - 0.2
27/04:00pm 22.5 17.5 8.2 40 7.9 WSW 24 39 13 21 - - 0.2
27/03:30pm 22.5 18.3 9.6 44 7.3 WSW 22 39 12 21 - - 0.2
27/03:00pm 22.0 17.6 8.9 43 7.3 WSW 22 37 12 20 - - 0.2
27/02:30pm 20.1 17.4 11.6 58 4.9 W 17 24 9 13 - - 0.2
27/02:00pm 21.1 19.6 12.0 56 5.4 WNW 11 20 6 11 - - 0.2
27/01:30pm 18.9 15.9 10.5 58 4.8 W 17 24 9 13 - - 0.2
27/01:00pm 19.5 17.4 11.0 58 4.9 W 13 20 7 11 - - 0.2
27/12:30pm 19.5 16.7 10.0 54 5.4 NW 15 24 8 13 - - 0.2
27/12:00pm 17.5 16.8 12.0 70 3.2 NNE 7 17 4 9 - - 0.2
27/11:30am 16.7 16.4 11.6 72 2.9 NNE 4 13 2 7 - - 0.2
27/11:00am 16.1 14.8 11.3 73 2.7 NNE 9 13 5 7 - - 0.2
27/10:30am 16.0 14.7 11.2 73 2.7 NE 9 19 5 10 - - 0.0
27/10:06am 14.5 13.4 10.5 77 2.2 NNE 7 15 4 8 - - 0.0
27/10:00am 14.3 13.3 10.9 80 1.9 NE 7 15 4 8 - - 0.0
27/09:47am 14.3 13.3 10.9 80 1.9 N 7 15 4 8 - - 0.0
27/09:45am 14.2 12.8 10.8 80 1.9 N 9 17 5 9 - - 0.0
27/09:30am 14.2 12.8 11.0 81 1.8 NE 9 15 5 8 - - 0.0
27/09:00am 12.6 11.6 11.0 90 0.9 NE 7 13 4 7 - - 0.2
27/08:42am 12.4 11.5 11.5 94 0.5 ENE 7 11 4 6 - - 0.2
27/08:30am 12.4 11.3 11.8 96 0.3 ENE 9 13 5 7 - - 0.2
27/08:00am 11.8 10.5 11.2 96 0.3 ENE 9 13 5 7 - - 0.2
27/07:30am 11.6 10.6 11.0 96 0.3 ENE 7 13 4 7 - - 0.2
27/07:00am 11.6 10.2 11.0 96 0.3 ENE 9 15 5 8 - - 0.2
27/06:30am 11.5 10.1 10.9 96 0.3 ENE 9 15 5 8 - - 0.2
27/06:00am 11.6 10.2 11.0 96 0.3 ENE 9 11 5 6 - - 0.2
27/05:30am 11.7 10.4 11.1 96 0.3 ENE 9 15 5 8 - - 0.2
27/05:00am 11.9 10.6 11.3 96 0.3 ENE 9 13 5 7 - - 0.2
27/04:30am 11.9 11.0 11.3 96 0.3 ENE 7 9 4 5 - - 0.2
27/04:00am 11.8 11.0 11.2 96 0.3 E 6 13 3 7 - - 0.2
27/03:30am 12.0 11.3 11.4 96 0.3 ENE 6 9 3 5 - - 0.2
27/03:00am 12.3 11.7 11.7 96 0.3 ENE 6 11 3 6 - - 0.2
27/02:30am 12.4 11.8 11.6 95 0.4 ENE 6 13 3 7 - - 0.2
27/02:00am 12.6 11.8 11.8 95 0.5 ENE 7 15 4 8 - - 0.2
27/01:30am 12.6 11.5 11.8 95 0.5 ENE 9 19 5 10 - - 0.2
27/01:00am 13.1 11.7 12.2 94 0.5 ENE 11 17 6 9 - - 0.2
27/12:30am 13.5 11.8 12.4 93 0.6 ENE 13 19 7 10 - - 0.2
27/12:00am 14.0 12.9 13.1 94 0.5 ENE 11 17 6 9 - - 0.2
 
Date/Time
EDT
Temp
°C
App
Temp
°C
Dew
Point
°C
Rel
Hum
%
Delta-T
°C
Wind Press
QNH
hPa
Press
MSL
hPa
Rain since
9am
mm
Dir  Spd
km/h
Gust
km/h
Spd
kts
Gust
kts
26/11:30pm 14.5 13.0 13.2 92 0.8 ENE 13 19 7 10 - - 0.2
26/11:00pm 14.8 13.3 13.0 89 1.0 ENE 13 19 7 10 - - 0.2
26/10:57pm 14.8 13.3 13.0 89 1.0 ENE 13 19 7 10 - - 0.2
26/10:54pm 14.9 13.3 12.9 88 1.2 ENE 13 17 7 9 - - 0.2
26/10:30pm 16.1 15.0 11.9 76 2.4 ENE 9 13 5 7 - - 0.2
26/10:00pm 19.0 15.9 7.1 46 6.3 WSW 13 20 7 11 - - 0.2
26/09:30pm 19.3 15.8 7.1 45 6.5 SW 15 22 8 12 - - 0.2
26/09:00pm 19.3 15.5 7.7 47 6.3 WSW 17 24 9 13 - - 0.2
26/08:30pm 20.3 16.0 8.0 45 6.7 WSW 20 30 11 16 - - 0.2
26/08:00pm 20.3 16.3 8.9 48 6.3 WSW 20 30 11 16 - - 0.2
26/07:30pm 20.9 16.4 10.1 50 6.1 WSW 24 32 13 17 - - 0.2
26/07:00pm 22.0 21.5 15.8 68 3.9 W 13 19 7 10 - - 0.2
26/06:30pm 22.2 21.4 16.0 68 3.9 W 15 20 8 11 - - 0.2
26/06:00pm 22.5 21.6 15.8 66 4.2 W 15 22 8 12 - - 0.2
26/05:30pm 20.9 18.9 15.0 69 3.6 WSW 19 28 10 15 - - 0.2
26/05:00pm 22.8 19.7 14.6 60 5.1 W 24 43 13 23 - - 0.2
26/04:30pm 21.2 17.7 14.4 65 4.2 W 26 43 14 23 - - 0.2
26/04:11pm 21.6 17.8 14.7 65 4.3 WSW 28 46 15 25 - - 0.2

Latest Capital City Observations: Canberra | Sydney | Melbourne | Brisbane | Adelaide | Perth | Hobart | Darwin

Other formats

Comma delimited format used in spreadsheet applications
http://www.bom.gov.au/fwo/IDN60901/IDN60901.94743.axf

JavaScript Object Notation format (JSON) in row-major order
http://www.bom.gov.au/fwo/IDN60901/IDN60901.94743.json

Data quality

Most of these data are generated automatically and are frequently updated. Quality checks on data are not normally performed. It is possible for incorrect values to appear. Refer to information at About Latest Weather Observations and please check the disclaimer before using these data.